Time;durP1;ratioP1;P1;durP2;ratioP2;P2;SDS_P1;SDS_P2;PMS_P1;PMS_P2;Temp;Humidity;BMP_temperature;BMP_pressure;BME280_temperature;BME280_humidity;BME280_pressure;Samples;Min_cycle;Max_cycle;Signal;HPM_P1;HPM_P2
2022/11/30 00:02:14;;;;;;;181.20;46.97;;;;;;;;;;4997086;28;20034;-71
2022/11/30 00:04:39;;;;;;;181.55;46.90;;;;;;;;;;4993035;28;20029;-70
2022/11/30 00:07:04;;;;;;;187.40;45.37;;;;;;;;;;4996877;28;20092;-69
2022/11/30 00:09:29;;;;;;;210.70;47.87;;;;;;;;;;4988060;28;20320;-70
2022/11/30 00:11:54;;;;;;;169.80;45.83;;;;;;;;;;4993674;28;20285;-69
2022/11/30 00:14:20;;;;;;;218.67;47.70;;;;;;;;;;4997940;28;20284;-70
2022/11/30 00:16:45;;;;;;;189.63;45.17;;;;;;;;;;4996538;28;20368;-71
2022/11/30 00:19:10;;;;;;;189.63;48.55;;;;;;;;;;4997803;28;20036;-70
2022/11/30 00:21:35;;;;;;;250.73;52.17;;;;;;;;;;4986256;28;20054;-70
2022/11/30 00:24:00;;;;;;;195.17;48.57;;;;;;;;;;4990486;28;20696;-72
2022/11/30 00:26:25;;;;;;;265.98;51.10;;;;;;;;;;4991133;28;20297;-69
2022/11/30 00:28:51;;;;;;;216.07;49.53;;;;;;;;;;4987135;28;20030;-72
2022/11/30 00:31:17;;;;;;;284.15;59.55;;;;;;;;;;4998782;28;20906;-69
2022/11/30 00:33:42;;;;;;;246.35;51.42;;;;;;;;;;4994649;28;20037;-69
2022/11/30 00:36:10;;;;;;;261.20;54.05;;;;;;;;;;4992696;28;20045;-69
2022/11/30 00:38:35;;;;;;;297.08;62.85;;;;;;;;;;4987291;28;20360;-70
2022/11/30 00:41:01;;;;;;;240.32;53.65;;;;;;;;;;4988155;28;20079;-70
2022/11/30 00:43:26;;;;;;;323.85;59.83;;;;;;;;;;5000130;28;20022;-69
2022/11/30 00:45:51;;;;;;;257.52;53.42;;;;;;;;;;4995954;28;20426;-71
2022/11/30 00:48:16;;;;;;;255.68;53.80;;;;;;;;;;4997754;28;20026;-69
2022/11/30 00:50:41;;;;;;;313.57;57.40;;;;;;;;;;4999493;28;21901;-72
2022/11/30 00:53:07;;;;;;;295.60;54.80;;;;;;;;;;4990189;28;20379;-69
2022/11/30 00:55:32;;;;;;;358.17;59.57;;;;;;;;;;4998828;28;20286;-72
2022/11/30 00:57:57;;;;;;;297.88;58.97;;;;;;;;;;4996126;28;20281;-69
2022/11/30 01:00:22;;;;;;;264.92;52.17;;;;;;;;;;5001006;28;20017;-74
2022/11/30 01:02:48;;;;;;;286.85;51.65;;;;;;;;;;4993144;28;20030;-72
2022/11/30 01:05:13;;;;;;;312.65;56.92;;;;;;;;;;4999830;28;20018;-70
2022/11/30 01:07:38;;;;;;;295.05;53.42;;;;;;;;;;4989173;28;20032;-70
2022/11/30 01:10:03;;;;;;;346.80;58.80;;;;;;;;;;4995230;28;20018;-69
2022/11/30 01:12:29;;;;;;;289.05;51.70;;;;;;;;;;4998153;28;20080;-69
2022/11/30 01:14:54;;;;;;;305.43;55.43;;;;;;;;;;5000286;28;20018;-69
2022/11/30 01:17:19;;;;;;;300.17;51.83;;;;;;;;;;4995751;28;20284;-69
2022/11/30 01:19:44;;;;;;;350.23;55.17;;;;;;;;;;5000042;28;20505;-71
2022/11/30 01:22:10;;;;;;;337.42;52.38;;;;;;;;;;4995086;28;20058;-69
2022/11/30 01:24:35;;;;;;;301.13;51.70;;;;;;;;;;5001656;28;20022;-70
2022/11/30 01:27:00;;;;;;;304.63;53.17;;;;;;;;;;4996118;28;20117;-71
2022/11/30 01:29:25;;;;;;;300.70;51.60;;;;;;;;;;5001771;28;20782;-70
2022/11/30 01:31:50;;;;;;;289.95;51.90;;;;;;;;;;4995015;28;20281;-72
2022/11/30 01:34:15;;;;;;;305.23;53.27;;;;;;;;;;4998667;28;20081;-71
2022/11/30 01:36:42;;;;;;;299.83;52.10;;;;;;;;;;4988944;28;20284;-71
2022/11/30 01:39:08;;;;;;;313.10;51.97;;;;;;;;;;4992406;28;20273;-70
2022/11/30 01:41:33;;;;;;;431.83;59.10;;;;;;;;;;4997467;28;20041;-73
2022/11/30 01:44:04;;;;;;;352.07;54.40;;;;;;;;;;4999251;28;20060;-69
2022/11/30 01:46:29;;;;;;;341.58;53.42;;;;;;;;;;4995875;28;20272;-71
2022/11/30 01:49:09;;;;;;;400.27;60.58;;;;;;;;;;4996238;28;20022;-69
2022/11/30 01:51:38;;;;;;;311.92;52.20;;;;;;;;;;4997407;28;20281;-71
2022/11/30 01:54:06;;;;;;;330.27;56.30;;;;;;;;;;4999108;28;20082;-70
2022/11/30 01:56:32;;;;;;;373.80;59.75;;;;;;;;;;5001233;28;20029;-71
2022/11/30 01:58:57;;;;;;;356.60;56.70;;;;;;;;;;4997015;28;20049;-69
2022/11/30 02:01:23;;;;;;;278.05;48.20;;;;;;;;;;5003670;28;20014;-72
2022/11/30 02:03:54;;;;;;;327.40;53.78;;;;;;;;;;4997924;28;20073;-74
2022/11/30 02:06:20;;;;;;;280.58;51.33;;;;;;;;;;5001528;28;20029;-70
2022/11/30 02:08:45;;;;;;;261.25;48.78;;;;;;;;;;4994976;28;20027;-70
2022/11/30 02:11:12;;;;;;;327.53;54.07;;;;;;;;;;5002332;28;20010;-71
2022/11/30 02:13:37;;;;;;;299.50;48.65;;;;;;;;;;4991327;28;20328;-70
2022/11/30 02:16:13;;;;;;;272.65;46.55;;;;;;;;;;4998863;28;20026;-74
2022/11/30 02:18:45;;;;;;;245.80;46.30;;;;;;;;;;4994572;28;20022;-70
2022/11/30 02:21:14;;;;;;;246.18;46.55;;;;;;;;;;5001950;28;20054;-70
2022/11/30 02:23:53;;;;;;;306.52;56.47;;;;;;;;;;4994257;28;20027;-70
2022/11/30 02:26:33;;;;;;;304.58;52.65;;;;;;;;;;5004156;28;20094;-70
2022/11/30 02:28:59;;;;;;;;;;;;;;;;;;4998865;28;20073;-71
2022/11/30 02:31:27;;;;;;;260.63;49.58;;;;;;;;;;5001145;28;19954;-70
2022/11/30 02:33:53;;;;;;;253.25;48.05;;;;;;;;;;4989555;28;20019;-70
2022/11/30 02:36:19;;;;;;;252.13;49.05;;;;;;;;;;5002061;28;20010;-71
2022/11/30 02:38:45;;;;;;;301.05;53.85;;;;;;;;;;4991305;28;20073;-70
2022/11/30 02:41:10;;;;;;;254.52;47.38;;;;;;;;;;4994961;28;20021;-70
2022/11/30 02:43:35;;;;;;;251.60;46.05;;;;;;;;;;4994153;28;20026;-72
2022/11/30 02:46:12;;;;;;;269.15;46.70;;;;;;;;;;5001567;28;20026;-70
2022/11/30 02:48:56;;;;;;;261.95;45.30;;;;;;;;;;4987561;28;20026;-70
2022/11/30 02:51:24;;;;;;;282.85;47.95;;;;;;;;;;4998605;28;20076;-73
2022/11/30 02:53:49;;;;;;;243.90;44.88;;;;;;;;;;4998810;28;20080;-70
2022/11/30 02:56:14;;;;;;;274.90;44.30;;;;;;;;;;4996893;28;20475;-70
2022/11/30 02:58:39;;;;;;;319.13;53.35;;;;;;;;;;4998462;28;20441;-69
2022/11/30 03:01:05;;;;;;;278.23;47.72;;;;;;;;;;4998957;28;20018;-69
2022/11/30 03:03:30;;;;;;;305.73;53.00;;;;;;;;;;4994303;28;20019;-71
2022/11/30 03:05:55;;;;;;;284.08;50.15;;;;;;;;;;4995419;28;20630;-70
2022/11/30 03:08:21;;;;;;;282.67;50.22;;;;;;;;;;4999999;28;20390;-70
2022/11/30 03:10:46;;;;;;;279.17;50.75;;;;;;;;;;4996747;28;20030;-72
2022/11/30 03:13:11;;;;;;;306.95;53.28;;;;;;;;;;5002726;28;20042;-70
2022/11/30 03:15:37;;;;;;;360.50;57.43;;;;;;;;;;4998369;28;20022;-70
2022/11/30 03:18:02;;;;;;;332.93;55.30;;;;;;;;;;4996951;28;20949;-70
2022/11/30 03:20:27;;;;;;;402.85;60.17;;;;;;;;;;4998246;28;20334;-70
2022/11/30 03:22:53;;;;;;;308.60;55.40;;;;;;;;;;5000737;28;20033;-71
2022/11/30 03:25:18;;;;;;;330.53;54.13;;;;;;;;;;4993992;28;20495;-70
2022/11/30 03:27:43;;;;;;;297.45;52.03;;;;;;;;;;4999633;28;20284;-70
2022/11/30 03:30:08;;;;;;;329.08;57.05;;;;;;;;;;4993681;28;20030;-70
2022/11/30 03:32:34;;;;;;;337.58;55.92;;;;;;;;;;4998724;28;20021;-69
2022/11/30 03:34:59;;;;;;;338.27;51.37;;;;;;;;;;4996000;28;20026;-71
2022/11/30 03:37:24;;;;;;;312.48;55.65;;;;;;;;;;4996874;28;20335;-69
2022/11/30 03:39:49;;;;;;;364.83;57.72;;;;;;;;;;4999308;28;20030;-70
2022/11/30 03:42:15;;;;;;;338.53;57.70;;;;;;;;;;4996444;28;20022;-71
2022/11/30 03:44:40;;;;;;;316.17;57.85;;;;;;;;;;4991015;28;20378;-69
2022/11/30 03:47:05;;;;;;;370.90;58.23;;;;;;;;;;4992000;28;20065;-73
2022/11/30 03:49:30;;;;;;;314.50;56.30;;;;;;;;;;4999874;28;20252;-70
2022/11/30 03:51:55;;;;;;;414.50;63.03;;;;;;;;;;4995433;28;20110;-72
2022/11/30 03:54:21;;;;;;;520.20;74.87;;;;;;;;;;5000835;28;20288;-70
2022/11/30 03:56:46;;;;;;;630.15;71.22;;;;;;;;;;4993656;28;20281;-71
2022/11/30 03:59:11;;;;;;;340.23;56.42;;;;;;;;;;4990254;28;20018;-69
2022/11/30 04:01:38;;;;;;;402.90;60.37;;;;;;;;;;4986643;28;20026;-70
2022/11/30 04:04:03;;;;;;;585.33;68.25;;;;;;;;;;4991876;28;20285;-70
2022/11/30 04:06:28;;;;;;;352.83;59.42;;;;;;;;;;5002126;28;20402;-71
2022/11/30 04:08:54;;;;;;;405.00;59.67;;;;;;;;;;4997382;28;20088;-71
2022/11/30 04:11:19;;;;;;;380.07;57.00;;;;;;;;;;4995955;28;20283;-71
2022/11/30 04:13:44;;;;;;;384.87;54.70;;;;;;;;;;5001987;28;20327;-71
2022/11/30 04:16:10;;;;;;;732.00;79.00;;;;;;;;;;4991853;28;20292;-71
2022/11/30 04:18:35;;;;;;;878.67;84.25;;;;;;;;;;4990079;28;20467;-71
2022/11/30 04:21:00;;;;;;;449.45;62.65;;;;;;;;;;4993429;28;20022;-71
2022/11/30 04:23:28;;;;;;;594.70;69.65;;;;;;;;;;5005354;28;20014;-71
2022/11/30 04:25:53;;;;;;;512.30;63.17;;;;;;;;;;4993122;28;20422;-71
2022/11/30 04:28:19;;;;;;;443.10;63.77;;;;;;;;;;5036104;23;20046;-71
2022/11/30 04:30:45;;;;;;;446.90;62.33;;;;;;;;;;5007072;28;20385;-71
2022/11/30 04:33:10;;;;;;;716.33;74.88;;;;;;;;;;5016023;28;20018;-70
2022/11/30 04:35:40;;;;;;;461.63;61.97;;;;;;;;;;5013411;28;20473;-70
2022/11/30 04:38:06;;;;;;;465.45;61.97;;;;;;;;;;5018113;28;20057;-70
2022/11/30 04:40:31;;;;;;;584.83;66.60;;;;;;;;;;5016135;28;20469;-70
2022/11/30 04:42:56;;;;;;;458.60;63.70;;;;;;;;;;4999996;28;20025;-70
2022/11/30 04:45:21;;;;;;;442.93;61.10;;;;;;;;;;5005325;28;20288;-70
2022/11/30 04:47:46;;;;;;;423.37;62.00;;;;;;;;;;5012602;28;20317;-70
2022/11/30 04:50:11;;;;;;;471.57;64.77;;;;;;;;;;5014656;28;20288;-71
2022/11/30 04:52:37;;;;;;;461.83;65.97;;;;;;;;;;5010435;28;20278;-70
2022/11/30 04:55:03;;;;;;;506.13;76.40;;;;;;;;;;5011447;28;20382;-71
2022/11/30 04:57:28;;;;;;;434.45;68.85;;;;;;;;;;5014049;28;20009;-70
2022/11/30 04:59:53;;;;;;;396.63;63.63;;;;;;;;;;5012210;28;20026;-71
2022/11/30 05:02:18;;;;;;;464.10;67.53;;;;;;;;;;5003497;28;20025;-70
2022/11/30 05:04:44;;;;;;;384.80;61.43;;;;;;;;;;5014321;28;20339;-71
2022/11/30 05:07:09;;;;;;;389.00;65.27;;;;;;;;;;5007294;28;20273;-71
2022/11/30 05:09:34;;;;;;;383.48;69.50;;;;;;;;;;5015162;28;20747;-72
2022/11/30 05:11:59;;;;;;;360.48;59.47;;;;;;;;;;5010681;28;20022;-70
2022/11/30 05:14:25;;;;;;;359.08;59.30;;;;;;;;;;5020830;28;20075;-70
2022/11/30 05:16:50;;;;;;;386.27;67.63;;;;;;;;;;5000163;28;20049;-70
2022/11/30 05:19:15;;;;;;;349.13;69.97;;;;;;;;;;5019882;28;20014;-71
2022/11/30 05:21:41;;;;;;;336.73;56.37;;;;;;;;;;5012153;28;20036;-70
2022/11/30 05:24:06;;;;;;;400.50;76.50;;;;;;;;;;5019559;28;20273;-70
2022/11/30 05:26:31;;;;;;;363.55;67.88;;;;;;;;;;5021490;28;20013;-70
2022/11/30 05:28:56;;;;;;;355.95;62.30;;;;;;;;;;5019271;28;20370;-70
2022/11/30 05:31:22;;;;;;;364.80;61.43;;;;;;;;;;4998751;28;20041;-70
2022/11/30 05:33:50;;;;;;;324.90;57.90;;;;;;;;;;5012395;28;20260;-70
2022/11/30 05:36:16;;;;;;;368.55;63.08;;;;;;;;;;5001848;28;20281;-70
2022/11/30 05:38:41;;;;;;;344.90;57.55;;;;;;;;;;5006996;28;20045;-70
2022/11/30 05:41:06;;;;;;;367.80;64.85;;;;;;;;;;5008960;28;20080;-70
2022/11/30 05:43:31;;;;;;;291.55;54.58;;;;;;;;;;5021334;28;20013;-72
2022/11/30 05:46:00;;;;;;;320.00;57.47;;;;;;;;;;5007567;28;20525;-70
2022/11/30 05:48:25;;;;;;;277.90;53.38;;;;;;;;;;5016815;28;20079;-71
2022/11/30 05:50:50;;;;;;;262.35;52.42;;;;;;;;;;5011028;28;20035;-70
2022/11/30 05:53:15;;;;;;;292.20;54.60;;;;;;;;;;5017782;28;20053;-71
2022/11/30 05:55:41;;;;;;;258.03;48.43;;;;;;;;;;5010156;28;20650;-70
2022/11/30 05:58:06;;;;;;;274.77;48.35;;;;;;;;;;5007311;28;20276;-72
2022/11/30 06:00:31;;;;;;;251.50;47.78;;;;;;;;;;5002138;28;20418;-70
2022/11/30 06:02:57;;;;;;;256.40;50.27;;;;;;;;;;5000855;28;20525;-70
2022/11/30 06:05:22;;;;;;;228.73;45.10;;;;;;;;;;5007849;28;20264;-69
2022/11/30 06:07:47;;;;;;;242.38;46.25;;;;;;;;;;5005026;28;20034;-69
2022/11/30 06:10:12;;;;;;;238.50;45.33;;;;;;;;;;5005214;28;20503;-72
2022/11/30 06:12:38;;;;;;;208.50;45.63;;;;;;;;;;5006007;28;20303;-70
2022/11/30 06:15:03;;;;;;;221.27;47.53;;;;;;;;;;5004696;28;20292;-69
2022/11/30 06:17:29;;;;;;;238.43;45.75;;;;;;;;;;5007410;28;20489;-73
2022/11/30 06:19:54;;;;;;;213.95;46.17;;;;;;;;;;5008983;28;20408;-70
2022/11/30 06:22:19;;;;;;;203.27;44.13;;;;;;;;;;5012156;28;20053;-72
2022/11/30 06:24:44;;;;;;;199.38;43.88;;;;;;;;;;5005407;28;20026;-71
2022/11/30 06:27:09;;;;;;;198.15;45.13;;;;;;;;;;5006215;28;20033;-70
2022/11/30 06:29:35;;;;;;;196.15;46.35;;;;;;;;;;5006067;28;20029;-70
2022/11/30 06:32:00;;;;;;;172.55;41.90;;;;;;;;;;5008293;28;20037;-70
2022/11/30 06:34:25;;;;;;;170.50;41.28;;;;;;;;;;5009885;28;20079;-69
2022/11/30 06:36:50;;;;;;;174.70;41.90;;;;;;;;;;5007815;28;20248;-69
2022/11/30 06:39:15;;;;;;;174.80;43.83;;;;;;;;;;5015973;28;20355;-71
2022/11/30 06:41:40;;;;;;;167.77;40.20;;;;;;;;;;4993122;28;20343;-70
2022/11/30 06:44:09;;;;;;;170.33;41.67;;;;;;;;;;5006276;28;20123;-72
2022/11/30 06:46:35;;;;;;;164.68;40.63;;;;;;;;;;5000387;28;20273;-72
2022/11/30 06:49:00;;;;;;;153.25;40.88;;;;;;;;;;5015446;28;20732;-71
2022/11/30 06:51:25;;;;;;;149.10;37.37;;;;;;;;;;5011521;28;20067;-70
2022/11/30 06:53:50;;;;;;;139.90;36.60;;;;;;;;;;5005084;28;20277;-71
2022/11/30 06:56:15;;;;;;;136.38;38.08;;;;;;;;;;5012154;28;20411;-70
2022/11/30 06:58:40;;;;;;;138.35;38.28;;;;;;;;;;5014846;28;20033;-69
2022/11/30 07:01:11;;;;;;;123.10;35.37;;;;;;;;;;5013506;28;20387;-69
2022/11/30 07:03:36;;;;;;;;;;;;;;;;;;4997832;28;20308;-70
2022/11/30 07:06:05;;;;;;;122.43;33.60;;;;;;;;;;5005571;28;19905;-70
2022/11/30 07:08:30;;;;;;;112.88;32.40;;;;;;;;;;5007496;28;20363;-70
2022/11/30 07:10:58;;;;;;;105.22;33.70;;;;;;;;;;5000686;28;20077;-68
2022/11/30 07:13:23;;;;;;;118.90;33.05;;;;;;;;;;5002111;28;20080;-68
2022/11/30 07:15:48;;;;;;;107.67;31.50;;;;;;;;;;4998899;28;20113;-72
2022/11/30 07:18:13;;;;;;;99.00;30.37;;;;;;;;;;5002883;28;20661;-69
2022/11/30 07:20:39;;;;;;;87.57;29.73;;;;;;;;;;4995057;28;20347;-70
2022/11/30 07:26:08;;;;;;;93.40;29.55;;;;;;;;;;5004923;28;20037;-69
2022/11/30 07:28:35;;;;;;;93.88;31.20;;;;;;;;;;4999471;28;20075;-70
2022/11/30 07:31:00;;;;;;;95.57;28.55;;;;;;;;;;5006744;28;20198;-69
2022/11/30 07:33:25;;;;;;;92.30;29.50;;;;;;;;;;5005609;28;20076;-70
2022/11/30 07:35:53;;;;;;;92.40;30.03;;;;;;;;;;5004072;28;20283;-69
2022/11/30 07:38:19;;;;;;;109.18;33.25;;;;;;;;;;4999919;28;20264;-68
2022/11/30 07:40:44;;;;;;;86.18;30.00;;;;;;;;;;5001549;28;20021;-69
2022/11/30 07:43:09;;;;;;;101.57;32.40;;;;;;;;;;5003690;28;20021;-69
2022/11/30 07:45:34;;;;;;;104.80;36.70;;;;;;;;;;5006651;28;20338;-70
2022/11/30 07:47:59;;;;;;;93.20;32.47;;;;;;;;;;5007757;28;20276;-69
2022/11/30 07:50:25;;;;;;;98.37;32.70;;;;;;;;;;4999808;28;20761;-70
2022/11/30 07:52:50;;;;;;;102.95;31.58;;;;;;;;;;5001791;28;20276;-71
2022/11/30 07:55:15;;;;;;;95.97;31.23;;;;;;;;;;5004850;28;20370;-70
2022/11/30 07:57:40;;;;;;;94.72;30.77;;;;;;;;;;5008916;28;20284;-72
2022/11/30 08:00:06;;;;;;;104.57;31.90;;;;;;;;;;4999747;28;20032;-70
2022/11/30 08:02:31;;;;;;;102.00;35.60;;;;;;;;;;5006851;28;20277;-71
2022/11/30 08:04:57;;;;;;;107.40;31.60;;;;;;;;;;5007335;28;20022;-70
2022/11/30 08:07:22;;;;;;;91.15;30.63;;;;;;;;;;5006020;28;20363;-71
2022/11/30 08:09:48;;;;;;;101.15;32.60;;;;;;;;;;4993669;28;20665;-70
2022/11/30 08:12:13;;;;;;;90.13;31.67;;;;;;;;;;5001208;28;20030;-70
2022/11/30 08:14:38;;;;;;;98.57;30.27;;;;;;;;;;5010482;28;20106;-70
2022/11/30 08:17:03;;;;;;;92.10;31.07;;;;;;;;;;5003410;28;20105;-71
2022/11/30 08:19:28;;;;;;;95.97;29.63;;;;;;;;;;5003218;28;20257;-72
2022/11/30 08:21:53;;;;;;;102.18;34.88;;;;;;;;;;4998596;28;20371;-71
2022/11/30 08:24:19;;;;;;;85.47;30.60;;;;;;;;;;4999582;28;20030;-70
2022/11/30 08:26:44;;;;;;;94.57;30.92;;;;;;;;;;5007695;28;20273;-70
2022/11/30 08:29:12;;;;;;;96.00;31.55;;;;;;;;;;5002545;28;20038;-70
2022/11/30 08:31:37;;;;;;;98.45;31.58;;;;;;;;;;4990567;28;20026;-71
2022/11/30 08:34:04;;;;;;;97.00;33.10;;;;;;;;;;5005722;28;20022;-70
2022/11/30 08:36:29;;;;;;;91.80;31.88;;;;;;;;;;5004697;28;20240;-70
2022/11/30 08:38:59;;;;;;;97.40;33.20;;;;;;;;;;5002806;28;20026;-70
2022/11/30 08:41:24;;;;;;;98.50;33.97;;;;;;;;;;5006961;28;20022;-70
2022/11/30 08:43:49;;;;;;;89.25;32.60;;;;;;;;;;5016454;28;20032;-69
2022/11/30 08:46:16;;;;;;;96.40;33.78;;;;;;;;;;5007255;28;20018;-70
2022/11/30 08:48:41;;;;;;;96.03;32.70;;;;;;;;;;5017633;28;20026;-70
2022/11/30 08:51:08;;;;;;;102.70;36.13;;;;;;;;;;5004645;28;20501;-71
2022/11/30 08:53:33;;;;;;;101.80;35.42;;;;;;;;;;5016362;28;20517;-71
2022/11/30 08:56:00;;;;;;;98.13;34.88;;;;;;;;;;4997827;28;20160;-72
2022/11/30 08:58:26;;;;;;;110.43;34.42;;;;;;;;;;5002599;28;20382;-71
2022/11/30 09:00:51;;;;;;;95.47;33.63;;;;;;;;;;5001723;28;20026;-70
2022/11/30 09:03:16;;;;;;;91.78;32.72;;;;;;;;;;5005676;28;20372;-71
2022/11/30 09:05:41;;;;;;;87.77;32.33;;;;;;;;;;5011128;28;20045;-70
2022/11/30 09:08:07;;;;;;;91.07;30.87;;;;;;;;;;4997989;28;20274;-70
2022/11/30 09:10:32;;;;;;;86.90;30.90;;;;;;;;;;5001779;28;20283;-71
2022/11/30 09:12:57;;;;;;;81.97;31.13;;;;;;;;;;5006245;28;20303;-70
2022/11/30 09:15:22;;;;;;;89.78;31.75;;;;;;;;;;5002368;28;20689;-71
2022/11/30 09:17:47;;;;;;;89.18;32.30;;;;;;;;;;5006136;28;20053;-70
2022/11/30 09:20:13;;;;;;;89.30;31.73;;;;;;;;;;5008718;28;20089;-71
2022/11/30 09:22:38;;;;;;;89.18;35.30;;;;;;;;;;5001798;28;20637;-70
2022/11/30 09:25:03;;;;;;;98.17;33.77;;;;;;;;;;5015113;28;20437;-71
2022/11/30 09:27:30;;;;;;;85.53;30.33;;;;;;;;;;5003283;28;20288;-70
2022/11/30 09:29:56;;;;;;;91.30;35.08;;;;;;;;;;5000312;28;20026;-71
2022/11/30 09:32:21;;;;;;;93.40;33.28;;;;;;;;;;5011686;28;20045;-71
2022/11/30 09:34:46;;;;;;;90.00;32.42;;;;;;;;;;5009303;28;20399;-70
2022/11/30 09:37:11;;;;;;;90.72;32.33;;;;;;;;;;5001939;28;20022;-71
2022/11/30 09:39:37;;;;;;;89.97;34.47;;;;;;;;;;5003873;28;20423;-70
2022/11/30 09:42:11;;;;;;;90.67;33.97;;;;;;;;;;5008419;28;20268;-70
2022/11/30 09:45:03;;;;;;;96.03;34.85;;;;;;;;;;5007513;28;20351;-70
2022/11/30 09:47:40;;;;;;;90.35;33.42;;;;;;;;;;4982959;28;20045;-70
2022/11/30 09:50:13;;;;;;;91.20;33.10;;;;;;;;;;5010554;28;20719;-70
2022/11/30 09:52:41;;;;;;;83.85;32.35;;;;;;;;;;5009012;28;20028;-69
2022/11/30 09:55:08;;;;;;;84.72;32.30;;;;;;;;;;5003693;28;20060;-70
2022/11/30 09:57:44;;;;;;;79.43;32.58;;;;;;;;;;5012990;28;20015;-70
2022/11/30 10:00:16;;;;;;;98.90;35.63;;;;;;;;;;5007369;28;20153;-70
2022/11/30 10:02:42;;;;;;;90.45;32.78;;;;;;;;;;5008756;28;20084;-71
2022/11/30 10:05:14;;;;;;;99.00;34.85;;;;;;;;;;4999602;28;20026;-70
2022/11/30 10:07:39;;;;;;;92.43;35.10;;;;;;;;;;5013076;28;20115;-70
2022/11/30 10:10:05;;;;;;;100.67;34.57;;;;;;;;;;5008749;28;20104;-69
2022/11/30 10:12:36;;;;;;;91.70;32.92;;;;;;;;;;5009421;28;20336;-69
2022/11/30 10:15:01;;;;;;;95.82;33.58;;;;;;;;;;5004000;28;20029;-69
2022/11/30 10:17:42;;;;;;;105.03;34.08;;;;;;;;;;5012056;28;20014;-69
2022/11/30 10:20:07;;;;;;;;;;;;;;;;;;4998148;28;20356;-69
2022/11/30 10:22:38;;;;;;;94.43;36.35;;;;;;;;;;5005625;28;20020;-69
2022/11/30 10:25:29;;;;;;;97.80;36.38;;;;;;;;;;5007941;28;20030;-69
2022/11/30 10:28:05;;;;;;;90.97;35.35;;;;;;;;;;4998115;28;21923;-68
2022/11/30 10:30:34;;;;;;;100.05;37.63;;;;;;;;;;5006825;28;20053;-69
2022/11/30 10:33:04;;;;;;;103.45;39.97;;;;;;;;;;5001996;28;20038;-68
2022/11/30 10:35:33;;;;;;;108.32;37.75;;;;;;;;;;5008451;28;20032;-68
2022/11/30 10:38:01;;;;;;;97.57;35.30;;;;;;;;;;5008366;28;20042;-68
2022/11/30 10:40:45;;;;;;;92.07;34.10;;;;;;;;;;5000597;28;20033;-68
2022/11/30 10:43:31;;;;;;;108.63;38.55;;;;;;;;;;4999946;28;20030;-69
2022/11/30 10:45:57;;;;;;;109.55;41.75;;;;;;;;;;4997747;28;20014;-68
2022/11/30 10:48:25;;;;;;;98.30;38.92;;;;;;;;;;5001549;28;20096;-68
2022/11/30 10:50:51;;;;;;;94.70;36.60;;;;;;;;;;5008552;28;20022;-68
2022/11/30 10:53:16;;;;;;;104.72;38.78;;;;;;;;;;4998803;28;20153;-68
2022/11/30 10:55:44;;;;;;;114.95;39.40;;;;;;;;;;5004125;28;20038;-68
2022/11/30 10:58:15;;;;;;;97.70;38.30;;;;;;;;;;5003507;28;20018;-68
2022/11/30 11:00:43;;;;;;;101.10;36.92;;;;;;;;;;5010233;28;20072;-68
2022/11/30 11:03:24;;;;;;;108.68;40.60;;;;;;;;;;5005699;28;20021;-68
2022/11/30 11:06:21;;;;;;;96.15;36.70;;;;;;;;;;5001582;28;20021;-68
2022/11/30 11:08:46;;;;;;;104.55;36.42;;;;;;;;;;4993881;28;20053;-68
2022/11/30 11:11:28;;;;;;;104.00;39.60;;;;;;;;;;4997855;28;20022;-68
2022/11/30 11:14:06;;;;;;;99.00;40.67;;;;;;;;;;5000527;28;20032;-68
2022/11/30 11:16:47;;;;;;;117.95;45.13;;;;;;;;;;5004966;28;20115;-68
2022/11/30 11:19:21;;;;;;;115.03;43.00;;;;;;;;;;5002312;28;20467;-68
2022/11/30 11:21:47;;;;;;;100.10;38.83;;;;;;;;;;5001083;28;20018;-68
2022/11/30 11:24:14;;;;;;;110.82;46.28;;;;;;;;;;5001244;28;20022;-68
2022/11/30 11:26:47;;;;;;;113.65;40.67;;;;;;;;;;5000386;28;20026;-68
2022/11/30 11:29:30;;;;;;;114.88;44.55;;;;;;;;;;4997663;28;20034;-68
2022/11/30 11:32:04;;;;;;;118.90;43.53;;;;;;;;;;5003059;28;20029;-68
2022/11/30 11:34:33;;;;;;;119.40;47.85;;;;;;;;;;5001309;28;20030;-68
2022/11/30 11:37:21;;;;;;;126.60;47.10;;;;;;;;;;5004445;28;20010;-68
2022/11/30 11:40:09;;;;;;;140.88;54.72;;;;;;;;;;5001438;28;20102;-68
2022/11/30 11:42:39;;;;;;;142.40;52.85;;;;;;;;;;4999091;28;20018;-68
2022/11/30 11:45:05;;;;;;;156.38;52.65;;;;;;;;;;5001177;28;20021;-69
2022/11/30 11:47:39;;;;;;;139.07;52.92;;;;;;;;;;5002852;28;20030;-69
2022/11/30 11:50:11;;;;;;;132.93;50.10;;;;;;;;;;4995312;28;20108;-69
2022/11/30 11:52:36;;;;;;;137.63;48.15;;;;;;;;;;4997993;28;20026;-68
2022/11/30 11:55:04;;;;;;;132.50;49.30;;;;;;;;;;5007485;28;20030;-69
2022/11/30 11:57:35;;;;;;;133.48;49.05;;;;;;;;;;4997974;28;20096;-68
2022/11/30 12:00:04;;;;;;;128.23;50.75;;;;;;;;;;5006019;28;20013;-68
2022/11/30 12:02:48;;;;;;;128.80;48.70;;;;;;;;;;5001553;28;20512;-68
2022/11/30 12:05:15;;;;;;;128.77;48.15;;;;;;;;;;4996515;28;20389;-69
2022/11/30 12:07:40;;;;;;;130.18;47.25;;;;;;;;;;4992990;28;20096;-68
2022/11/30 12:10:25;;;;;;;134.32;51.05;;;;;;;;;;4997276;28;21155;-69
2022/11/30 12:12:51;;;;;;;125.22;46.70;;;;;;;;;;4995575;28;20281;-68
2022/11/30 12:15:16;;;;;;;125.25;44.95;;;;;;;;;;4998429;28;20044;-68
2022/11/30 12:17:49;;;;;;;121.70;44.28;;;;;;;;;;4998454;28;20022;-69
2022/11/30 12:20:34;;;;;;;126.55;47.10;;;;;;;;;;4994968;28;20049;-68
2022/11/30 12:23:11;;;;;;;126.00;50.28;;;;;;;;;;4994765;28;20053;-69
2022/11/30 12:25:42;;;;;;;121.10;44.72;;;;;;;;;;4996843;28;20084;-69
2022/11/30 12:28:26;;;;;;;123.65;43.63;;;;;;;;;;4998627;28;20033;-69
2022/11/30 12:31:10;;;;;;;125.97;49.10;;;;;;;;;;5000228;28;20470;-68
2022/11/30 12:33:35;;;;;;;122.43;44.15;;;;;;;;;;5003767;28;20382;-69
2022/11/30 12:36:03;;;;;;;122.80;47.63;;;;;;;;;;5000719;28;20026;-68
2022/11/30 12:38:35;;;;;;;122.50;48.63;;;;;;;;;;4997692;28;20641;-68
2022/11/30 12:41:16;;;;;;;118.40;42.00;;;;;;;;;;5007676;28;20494;-69
2022/11/30 12:43:47;;;;;;;114.78;43.42;;;;;;;;;;5004626;28;20041;-69
2022/11/30 12:46:30;;;;;;;118.47;44.67;;;;;;;;;;5002379;28;20026;-68
2022/11/30 12:48:58;;;;;;;112.18;44.05;;;;;;;;;;5002301;28;20422;-69
2022/11/30 12:51:31;;;;;;;111.85;43.88;;;;;;;;;;5009841;28;20018;-69
2022/11/30 12:54:15;;;;;;;113.43;42.70;;;;;;;;;;4998949;28;20569;-70
2022/11/30 12:56:43;;;;;;;111.75;43.53;;;;;;;;;;4999725;28;20038;-70
2022/11/30 12:59:18;;;;;;;119.60;43.03;;;;;;;;;;4996265;28;20037;-69
2022/11/30 13:01:55;;;;;;;110.97;40.22;;;;;;;;;;4994644;28;20034;-68
2022/11/30 13:04:27;;;;;;;111.50;40.88;;;;;;;;;;5007087;28;20431;-69
2022/11/30 13:07:01;;;;;;;111.95;42.05;;;;;;;;;;5000502;28;20387;-68
2022/11/30 13:09:29;;;;;;;111.30;41.65;;;;;;;;;;5001216;28;20065;-68
2022/11/30 13:12:24;;;;;;;119.05;42.15;;;;;;;;;;5003699;28;20026;-68
2022/11/30 13:14:54;;;;;;;109.95;40.13;;;;;;;;;;4994731;28;20506;-68
2022/11/30 13:17:19;;;;;;;111.85;39.58;;;;;;;;;;4998425;28;20022;-69
2022/11/30 13:19:48;;;;;;;96.55;37.67;;;;;;;;;;5009273;28;20018;-69
2022/11/30 13:22:18;;;;;;;100.43;39.92;;;;;;;;;;4991402;28;20509;-69
2022/11/30 13:24:46;;;;;;;109.55;41.30;;;;;;;;;;4998601;28;20112;-69
2022/11/30 13:27:21;;;;;;;106.55;39.95;;;;;;;;;;4999351;28;20033;-68
2022/11/30 13:29:52;;;;;;;107.95;40.75;;;;;;;;;;4996495;28;20069;-68
2022/11/30 13:32:18;;;;;;;98.22;36.65;;;;;;;;;;4997592;28;20034;-68
2022/11/30 13:34:43;;;;;;;94.25;38.40;;;;;;;;;;5003678;28;20628;-68
2022/11/30 13:37:16;;;;;;;110.77;40.30;;;;;;;;;;5010860;28;20058;-68
2022/11/30 13:39:46;;;;;;;102.47;38.67;;;;;;;;;;5000387;28;20782;-68
2022/11/30 13:42:23;;;;;;;105.10;39.20;;;;;;;;;;5001133;28;20426;-69
2022/11/30 13:44:49;;;;;;;95.45;36.00;;;;;;;;;;5006622;28;20037;-68
2022/11/30 13:47:17;;;;;;;89.88;37.17;;;;;;;;;;5003549;28;20044;-69
2022/11/30 13:49:42;;;;;;;102.22;38.25;;;;;;;;;;5007524;28;20026;-68
2022/11/30 13:52:11;;;;;;;102.43;41.25;;;;;;;;;;5008567;28;20121;-68
2022/11/30 13:54:49;;;;;;;106.95;39.22;;;;;;;;;;5002798;28;20025;-68
2022/11/30 13:57:37;;;;;;;96.50;34.40;;;;;;;;;;5002230;28;20033;-68
2022/11/30 14:00:22;;;;;;;99.03;36.10;;;;;;;;;;4992136;28;20033;-68
2022/11/30 14:02:48;;;;;;;88.30;34.90;;;;;;;;;;4998189;28;20034;-68
2022/11/30 14:05:16;;;;;;;95.30;37.33;;;;;;;;;;5009989;28;20030;-68
2022/11/30 14:07:51;;;;;;;106.50;39.00;;;;;;;;;;5000039;28;20034;-68
2022/11/30 14:10:29;;;;;;;86.60;34.50;;;;;;;;;;4996851;28;20530;-69
2022/11/30 14:13:04;;;;;;;100.07;37.58;;;;;;;;;;5001120;28;20030;-68
2022/11/30 14:15:49;;;;;;;99.53;37.58;;;;;;;;;;4999895;28;20314;-68
2022/11/30 14:18:17;;;;;;;110.25;37.88;;;;;;;;;;5000496;28;20032;-69